Time;durP1;ratioP1;P1;durP2;ratioP2;P2;SDS_P1;SDS_P2;PMS_P1;PMS_P2;Temp;Humidity;BMP_temperature;BMP_pressure;BME280_temperature;BME280_humidity;BME280_pressure;Samples;Min_cycle;Max_cycle;Signal;HPM_P1;HPM_P2
2021/08/14 00:01:54;;;;;;;16.95;7.50;;;;;;;20.78;65.89;100583.00;126947;1093;22772;-79
2021/08/14 00:04:26;;;;;;;20.55;9.03;;;;;;;20.75;65.92;100581.27;127000;1093;30404;-79
2021/08/14 00:06:59;;;;;;;17.90;8.73;;;;;;;20.72;66.21;100580.27;126931;1092;23431;-79
2021/08/14 00:09:33;;;;;;;27.10;11.08;;;;;;;20.69;65.98;100580.59;126922;1093;25857;-79
2021/08/14 00:12:08;;;;;;;37.95;13.75;;;;;;;20.67;65.97;100577.53;126789;1093;22858;-82
2021/08/14 00:14:39;;;;;;;51.10;29.33;;;;;;;20.65;66.11;100577.31;126785;1093;22815;-81
2021/08/14 00:17:10;;;;;;;54.00;31.50;;;;;;;20.61;66.05;100571.19;126793;1092;22896;-81
2021/08/14 00:19:42;;;;;;;49.23;30.10;;;;;;;20.59;66.20;100577.38;126797;1092;22704;-81
2021/08/14 00:22:13;;;;;;;48.20;30.33;;;;;;;20.58;66.41;100578.70;126705;1092;22796;-81
2021/08/14 00:24:46;;;;;;;47.23;29.23;;;;;;;20.56;66.63;100586.99;127088;1093;22790;-81
2021/08/14 00:27:17;;;;;;;46.28;29.13;;;;;;;20.55;66.46;100585.45;127175;1093;22831;-83
2021/08/14 00:29:48;;;;;;;44.25;26.93;;;;;;;20.54;66.85;100575.42;127014;1092;27186;-81
2021/08/14 00:32:21;;;;;;;42.03;25.60;;;;;;;20.52;66.93;100585.77;127056;1093;22811;-82
2021/08/14 00:34:52;;;;;;;44.18;21.53;;;;;;;20.52;66.74;100583.70;127121;1093;22772;-80
2021/08/14 00:37:23;;;;;;;33.35;18.10;;;;;;;20.52;66.97;100591.44;127053;1093;22798;-80
2021/08/14 00:39:55;;;;;;;28.63;16.90;;;;;;;20.49;67.05;100587.61;127091;1093;22821;-81
2021/08/14 00:42:26;;;;;;;29.07;14.40;;;;;;;20.48;67.11;100585.32;127078;1093;22812;-82
2021/08/14 00:44:58;;;;;;;29.25;15.65;;;;;;;20.46;67.33;100583.03;127115;1092;22745;-81
2021/08/14 00:47:30;;;;;;;29.20;14.68;;;;;;;20.42;67.34;100582.55;127049;1093;22804;-80
2021/08/14 00:50:03;;;;;;;29.60;14.63;;;;;;;20.40;67.32;100592.92;127062;1093;22764;-81
2021/08/14 00:52:35;;;;;;;25.93;14.40;;;;;;;20.35;67.35;100593.77;127035;1092;22986;-81
2021/08/14 00:55:08;;;;;;;29.43;14.40;;;;;;;20.31;67.59;100579.91;127157;1092;22777;-80
2021/08/14 00:57:39;;;;;;;25.85;13.25;;;;;;;20.25;67.63;100593.41;127095;1093;22787;-81
2021/08/14 01:00:12;;;;;;;25.83;13.35;;;;;;;20.22;67.72;100597.30;127135;1093;22781;-80
2021/08/14 01:02:44;;;;;;;24.75;13.65;;;;;;;20.18;68.04;100594.76;127148;1093;22743;-81
2021/08/14 01:05:17;;;;;;;26.60;12.15;;;;;;;20.14;67.64;100591.47;127057;1093;22812;-80
2021/08/14 01:07:50;;;;;;;26.23;12.63;;;;;;;20.10;67.84;100602.34;126898;1093;25337;-80
2021/08/14 01:10:21;;;;;;;24.23;13.08;;;;;;;20.06;67.86;100601.12;126550;1092;22800;-80
2021/08/14 01:12:54;;;;;;;26.30;13.33;;;;;;;20.03;68.07;100594.45;126564;1093;22811;-82
2021/08/14 01:15:25;;;;;;;26.33;12.03;;;;;;;20.00;68.26;100592.70;126728;1093;22769;-80
2021/08/14 01:17:57;;;;;;;23.78;11.65;;;;;;;19.94;68.38;100591.24;126592;1092;22918;-81
2021/08/14 01:20:30;;;;;;;24.43;11.08;;;;;;;19.89;68.27;100592.06;127251;1092;26013;-83
2021/08/14 01:23:02;;;;;;;21.93;10.47;;;;;;;19.85;68.50;100588.78;127134;1093;22950;-80
2021/08/14 01:25:33;;;;;;;27.98;10.90;;;;;;;19.81;68.59;100583.42;126681;1092;24608;-81
2021/08/14 01:28:05;;;;;;;26.83;10.08;;;;;;;19.79;68.67;100586.02;126673;1093;22705;-80
2021/08/14 01:30:36;;;;;;;24.15;11.65;;;;;;;19.77;68.96;100573.69;126729;1093;22745;-80
2021/08/14 01:33:09;;;;;;;22.50;10.60;;;;;;;19.73;68.83;100590.23;126638;1093;22794;-80
2021/08/14 01:35:44;;;;;;;20.45;9.78;;;;;;;19.67;68.65;100587.47;126669;1092;25870;-79
2021/08/14 01:38:15;;;;;;;27.38;11.45;;;;;;;19.63;68.82;100591.91;126681;1093;24489;-80
2021/08/14 01:40:47;;;;;;;24.68;10.45;;;;;;;19.59;68.83;100582.94;126717;1092;22798;-80
2021/08/14 01:43:20;;;;;;;22.20;10.83;;;;;;;19.56;69.20;100581.16;126790;1093;22772;-81
2021/08/14 01:45:51;;;;;;;21.58;10.58;;;;;;;19.52;69.36;100578.64;126812;1091;22763;-81
2021/08/14 01:48:22;;;;;;;20.45;9.75;;;;;;;19.49;69.67;100582.52;126827;1093;22799;-81
2021/08/14 01:50:54;;;;;;;23.68;10.45;;;;;;;19.44;69.61;100582.59;126830;1093;22761;-81
2021/08/14 01:53:26;;;;;;;20.73;10.68;;;;;;;19.41;69.77;100583.68;127210;1093;22799;-81
2021/08/14 01:55:58;;;;;;;19.93;9.27;;;;;;;19.38;69.97;100581.90;127329;1092;23193;-80
2021/08/14 01:58:29;;;;;;;25.85;9.85;;;;;;;19.35;69.91;100581.67;127241;1093;22927;-81
2021/08/14 02:01:01;;;;;;;20.45;10.20;;;;;;;19.34;70.02;100579.38;127140;1092;22771;-81
2021/08/14 02:03:34;;;;;;;18.55;9.00;;;;;;;19.28;70.25;100585.05;127121;1093;22858;-81
2021/08/14 02:06:07;;;;;;;21.13;9.55;;;;;;;19.25;70.46;100588.19;127178;1092;22765;-81
2021/08/14 02:08:38;;;;;;;22.48;9.60;;;;;;;19.22;70.36;100597.75;127263;1092;23050;-81
2021/08/14 02:11:14;;;;;;;21.85;10.63;;;;;;;19.21;70.78;100587.72;127252;1092;22787;-81
2021/08/14 02:13:48;;;;;;;25.45;10.53;;;;;;;19.19;70.71;100581.82;127221;1092;27370;-81
2021/08/14 02:16:19;;;;;;;19.40;9.63;;;;;;;19.18;70.51;100588.79;127215;1092;22781;-81
2021/08/14 02:18:51;;;;;;;21.70;9.30;;;;;;;19.17;70.95;100582.36;127188;1093;22766;-81
2021/08/14 02:21:22;;;;;;;20.55;9.25;;;;;;;19.16;71.07;100577.23;127345;1093;22831;-81
2021/08/14 02:23:53;;;;;;;22.90;9.68;;;;;;;19.16;70.82;100574.41;127253;1093;22820;-81
2021/08/14 02:26:24;;;;;;;27.48;10.63;;;;;;;19.15;71.50;100576.46;127205;1093;26284;-81
2021/08/14 02:28:56;;;;;;;22.78;10.25;;;;;;;19.10;71.40;100573.67;127256;1091;22761;-81
2021/08/14 02:31:27;;;;;;;26.33;11.30;;;;;;;19.10;71.12;100576.50;127288;1092;22617;-81
2021/08/14 02:33:58;;;;;;;21.15;9.93;;;;;;;19.08;71.68;100567.77;127164;1093;22842;-81
2021/08/14 02:36:29;;;;;;;21.13;9.98;;;;;;;19.07;71.74;100574.75;127168;1093;22925;-80
2021/08/14 02:39:01;;;;;;;21.83;10.77;;;;;;;19.06;71.91;100571.14;127116;1092;22779;-80
2021/08/14 02:41:33;;;;;;;23.80;9.53;;;;;;;19.05;71.90;100566.80;127132;1093;22760;-81
2021/08/14 02:44:04;;;;;;;18.00;8.95;;;;;;;19.08;71.62;100564.95;127124;1092;24444;-80
2021/08/14 02:46:35;;;;;;;20.90;9.05;;;;;;;19.07;72.11;100552.88;127150;1093;22761;-80
2021/08/14 02:49:07;;;;;;;22.08;9.63;;;;;;;19.07;72.13;100563.42;127191;1092;22925;-81
2021/08/14 02:51:39;;;;;;;22.23;9.85;;;;;;;19.09;72.01;100552.34;127312;1092;25867;-81
2021/08/14 02:54:12;;;;;;;21.58;9.85;;;;;;;19.10;71.87;100553.86;127255;1092;22803;-81
2021/08/14 02:56:45;;;;;;;21.93;10.15;;;;;;;19.11;72.62;100563.90;127294;1092;26583;-81
2021/08/14 02:59:16;;;;;;;23.08;10.20;;;;;;;19.10;72.62;100554.63;127254;1093;22815;-82
2021/08/14 03:01:48;;;;;;;20.78;9.13;;;;;;;19.12;72.57;100556.92;127258;1093;25987;-81
2021/08/14 03:04:19;;;;;;;20.35;8.53;;;;;;;19.12;72.72;100562.59;127281;1093;22814;-80
2021/08/14 03:06:57;;;;;;;20.58;9.25;;;;;;;19.12;72.61;100554.87;126904;1093;22862;-81
2021/08/14 03:09:39;;;;;;;20.50;9.40;;;;;;;19.11;72.80;100558.23;126834;1092;22844;-81
2021/08/14 03:12:11;;;;;;;23.77;9.73;;;;;;;19.08;72.93;100554.40;126935;1093;22778;-81
2021/08/14 03:14:43;;;;;;;23.80;10.40;;;;;;;19.07;72.73;100554.94;127250;1092;22928;-80
2021/08/14 03:17:15;;;;;;;19.88;9.55;;;;;;;19.06;72.88;100561.88;127334;1092;23794;-80
2021/08/14 03:19:46;;;;;;;19.97;9.27;;;;;;;19.06;72.89;100561.88;127345;1091;25883;-81
2021/08/14 03:22:18;;;;;;;24.13;9.55;;;;;;;19.05;73.25;100566.02;127292;1093;22784;-81
2021/08/14 03:24:51;;;;;;;23.95;9.70;;;;;;;19.02;73.11;100565.02;127274;1093;23190;-81
2021/08/14 03:27:22;;;;;;;21.85;9.65;;;;;;;19.00;73.17;100564.00;127329;1092;22952;-81
2021/08/14 03:29:56;;;;;;;23.02;10.15;;;;;;;18.97;73.17;100573.56;127289;1093;22809;-81
2021/08/14 03:32:27;;;;;;;29.50;10.90;;;;;;;18.95;73.39;100581.81;127409;1092;25903;-81
2021/08/14 03:34:58;;;;;;;20.00;9.00;;;;;;;18.93;73.74;100579.49;127308;1092;22839;-81
2021/08/14 03:37:30;;;;;;;21.93;10.23;;;;;;;18.93;73.59;100573.09;126962;1093;22873;-81
2021/08/14 03:40:02;;;;;;;19.45;9.25;;;;;;;18.90;73.59;100580.57;127165;1093;22844;-81
2021/08/14 03:42:33;;;;;;;24.63;11.33;;;;;;;18.90;73.79;100583.40;127122;1093;23385;-80
2021/08/14 03:45:05;;;;;;;20.40;10.05;;;;;;;18.90;74.02;100582.63;127085;1093;22756;-80
2021/08/14 03:47:36;;;;;;;22.55;8.90;;;;;;;18.89;73.85;100581.11;127104;1093;22928;-81
2021/08/14 03:50:09;;;;;;;25.15;10.55;;;;;;;18.85;73.73;100587.03;127131;1092;23068;-81
2021/08/14 03:52:41;;;;;;;23.18;9.95;;;;;;;18.84;73.66;100584.73;127143;1092;22763;-81
2021/08/14 03:55:13;;;;;;;23.08;10.03;;;;;;;18.82;73.76;100590.16;127041;1093;22937;-81
2021/08/14 03:57:44;;;;;;;22.58;9.83;;;;;;;18.82;74.34;100588.11;126979;1092;27210;-81
2021/08/14 04:00:17;;;;;;;23.48;9.73;;;;;;;18.80;74.08;100585.03;127050;1092;22770;-80
2021/08/14 04:02:48;;;;;;;22.50;9.40;;;;;;;18.79;74.27;100582.75;126842;1093;26226;-81
2021/08/14 04:05:19;;;;;;;23.05;10.40;;;;;;;18.76;74.19;100578.91;126915;1092;28245;-80
2021/08/14 04:07:53;;;;;;;21.00;9.30;;;;;;;18.76;74.28;100583.78;126738;1093;24706;-80
2021/08/14 04:10:24;;;;;;;17.90;8.83;;;;;;;18.74;74.38;100580.72;126889;1093;22761;-80
2021/08/14 04:12:56;;;;;;;20.75;8.88;;;;;;;18.74;74.44;100575.84;126802;1092;22793;-80
2021/08/14 04:15:29;;;;;;;23.73;8.03;;;;;;;18.74;74.79;100575.84;127176;1093;22803;-81
2021/08/14 04:18:02;;;;;;;18.70;8.77;;;;;;;18.74;74.67;100569.41;127482;1093;22818;-80
2021/08/14 04:20:33;;;;;;;20.67;9.20;;;;;;;18.75;74.94;100577.36;127522;1093;22762;-81
2021/08/14 04:23:06;;;;;;;19.30;8.28;;;;;;;18.75;74.55;100582.23;127440;1093;22819;-81
2021/08/14 04:25:37;;;;;;;18.48;9.30;;;;;;;18.74;75.23;100592.81;127549;1092;23525;-81
2021/08/14 04:28:09;;;;;;;24.00;9.58;;;;;;;18.74;74.78;100594.86;127366;1092;26311;-81
2021/08/14 04:30:40;;;;;;;21.28;10.18;;;;;;;18.75;74.95;100602.04;127356;1093;22897;-81
2021/08/14 04:33:13;;;;;;;23.60;10.85;;;;;;;18.78;75.06;100601.00;127408;1093;22925;-79
2021/08/14 04:35:44;;;;;;;22.33;9.68;;;;;;;18.79;75.29;100614.61;126842;1093;25755;-80
2021/08/14 04:38:15;;;;;;;25.50;10.18;;;;;;;18.84;75.39;100610.20;126785;1093;22922;-80
2021/08/14 04:40:46;;;;;;;28.10;10.30;;;;;;;18.86;75.69;100611.21;126796;1093;22989;-80
2021/08/14 04:43:18;;;;;;;24.43;10.58;;;;;;;18.86;75.55;100607.61;126842;1092;22897;-80
2021/08/14 04:45:49;;;;;;;29.65;10.55;;;;;;;18.86;75.31;100605.55;126900;1092;22797;-79
2021/08/14 04:48:23;;;;;;;24.68;10.43;;;;;;;18.88;75.75;100610.67;126892;1093;27402;-80
2021/08/14 04:50:54;;;;;;;23.15;10.48;;;;;;;18.90;75.28;100614.52;127044;1093;22883;-80
2021/08/14 04:53:25;;;;;;;27.45;10.68;;;;;;;18.94;76.11;100611.39;126805;1092;22780;-81
2021/08/14 04:55:58;;;;;;;22.98;10.60;;;;;;;18.98;76.08;100609.03;126877;1093;22798;-81
2021/08/14 04:58:30;;;;;;;21.05;9.98;;;;;;;19.03;75.95;100608.23;126971;1092;22771;-80
2021/08/14 05:01:04;;;;;;;19.93;9.30;;;;;;;19.08;76.26;100618.71;127163;1093;22897;-81
2021/08/14 05:03:35;;;;;;;17.70;7.67;;;;;;;19.16;76.82;100620.44;126805;1093;22821;-80
2021/08/14 05:06:08;;;;;;;19.13;8.08;;;;;;;19.24;76.92;100621.38;126817;1092;22852;-80
2021/08/14 05:08:40;;;;;;;16.68;7.90;;;;;;;19.34;76.85;100625.45;126963;1093;22764;-80
2021/08/14 05:11:11;;;;;;;19.33;8.67;;;;;;;19.48;76.76;100637.64;126811;1093;22849;-81
2021/08/14 05:13:43;;;;;;;18.50;8.85;;;;;;;19.65;76.62;100635.39;126755;1092;22761;-80
2021/08/14 05:16:14;;;;;;;17.05;7.73;;;;;;;19.80;76.02;100634.96;127052;1093;27131;-81
2021/08/14 05:18:45;;;;;;;18.63;7.58;;;;;;;19.97;75.55;100644.77;126903;1092;22790;-81
2021/08/14 05:21:16;;;;;;;21.70;7.95;;;;;;;20.12;75.38;100638.66;126911;1093;25778;-81
2021/08/14 05:23:48;;;;;;;26.55;8.43;;;;;;;20.24;75.17;100642.89;126961;1093;23066;-81
2021/08/14 05:26:19;;;;;;;21.70;8.48;;;;;;;20.34;74.86;100641.20;126856;1093;22745;-81
2021/08/14 05:28:52;;;;;;;20.90;8.35;;;;;;;20.43;74.81;100648.55;126819;1093;24736;-81
2021/08/14 05:31:23;;;;;;;20.25;8.55;;;;;;;20.48;74.46;100653.39;126964;1092;22903;-81
2021/08/14 05:34:00;;;;;;;20.88;8.28;;;;;;;20.53;74.16;100649.69;126879;1093;22761;-80
2021/08/14 05:36:32;;;;;;;21.40;8.25;;;;;;;20.57;73.65;100647.30;127257;1092;22775;-79
2021/08/14 05:39:04;;;;;;;18.23;9.00;;;;;;;20.60;73.32;100649.08;127037;1092;25784;-81
2021/08/14 05:41:39;;;;;;;20.68;9.13;;;;;;;20.62;73.24;100650.08;127014;1093;22768;-80
2021/08/14 05:44:10;;;;;;;20.08;8.48;;;;;;;20.65;73.12;100666.00;127474;1093;22780;-81
2021/08/14 05:46:43;;;;;;;19.68;9.18;;;;;;;20.68;72.96;100661.33;127789;1091;25857;-81
2021/08/14 05:49:14;;;;;;;19.00;8.38;;;;;;;20.73;72.71;100671.83;127581;1093;22791;-81
2021/08/14 05:51:46;;;;;;;18.75;8.38;;;;;;;20.78;72.59;100670.97;127609;1093;22834;-81
2021/08/14 05:54:18;;;;;;;19.03;7.80;;;;;;;20.84;72.14;100680.16;127575;1092;22776;-81
2021/08/14 05:56:49;;;;;;;19.30;7.93;;;;;;;20.90;71.75;100675.15;127960;1091;22798;-81
2021/08/14 05:59:21;;;;;;;20.15;8.55;;;;;;;20.98;71.33;100684.59;128354;1093;22831;-81
2021/08/14 06:01:52;;;;;;;18.08;8.53;;;;;;;21.04;71.14;100687.36;127829;1093;22782;-81
2021/08/14 06:04:24;;;;;;;23.18;8.93;;;;;;;21.09;70.96;100686.48;127677;1093;22753;-81
2021/08/14 06:06:56;;;;;;;19.48;9.33;;;;;;;21.13;70.73;100690.55;127642;1093;22947;-81
2021/08/14 06:09:29;;;;;;;19.85;9.15;;;;;;;21.17;70.78;100696.66;127436;1093;22857;-81
2021/08/14 06:12:00;;;;;;;19.70;9.18;;;;;;;21.14;70.23;100689.25;127396;1093;22775;-79
2021/08/14 06:14:34;;;;;;;22.03;9.08;;;;;;;21.12;70.27;100700.38;126766;1093;22851;-79
2021/08/14 06:17:06;;;;;;;18.83;9.40;;;;;;;21.11;69.99;100693.16;126829;1093;22895;-78
2021/08/14 06:19:37;;;;;;;23.53;10.43;;;;;;;21.13;70.27;100692.61;126791;1092;22787;-78
2021/08/14 06:22:09;;;;;;;21.10;10.75;;;;;;;21.16;70.16;100695.15;126876;1093;22795;-77
2021/08/14 06:24:41;;;;;;;22.68;10.13;;;;;;;21.18;69.88;100701.05;127423;1093;22957;-79
2021/08/14 06:27:12;;;;;;;19.33;9.50;;;;;;;21.20;69.53;100698.44;126852;1093;26280;-79
2021/08/14 06:29:43;;;;;;;19.85;9.90;;;;;;;21.24;70.09;100700.95;126741;1093;24294;-78
2021/08/14 06:32:15;;;;;;;20.85;9.88;;;;;;;21.28;69.74;100702.16;126730;1092;22761;-79
2021/08/14 06:34:47;;;;;;;21.25;10.75;;;;;;;21.31;69.65;100706.00;126780;1092;22831;-78
2021/08/14 06:37:18;;;;;;;20.35;9.15;;;;;;;21.32;69.33;100708.29;126521;1093;22813;-77
2021/08/14 06:39:49;;;;;;;24.18;10.25;;;;;;;21.35;69.61;100710.05;126628;1093;22795;-77
2021/08/14 06:42:20;;;;;;;19.75;9.93;;;;;;;21.38;68.79;100706.11;126571;1092;22823;-77
2021/08/14 06:44:55;;;;;;;21.28;9.20;;;;;;;21.37;69.00;100712.34;126555;1092;22761;-77
2021/08/14 06:47:27;;;;;;;24.48;9.73;;;;;;;21.37;68.75;100720.87;126502;1092;22800;-76
2021/08/14 06:49:58;;;;;;;22.90;10.20;;;;;;;21.41;68.86;100716.40;126558;1093;24472;-76
2021/08/14 06:52:29;;;;;;;20.85;9.93;;;;;;;21.45;68.53;100730.27;126987;1092;22765;-76
2021/08/14 06:55:01;;;;;;;22.28;9.93;;;;;;;21.42;68.48;100725.66;126563;1093;24471;-75
2021/08/14 06:57:32;;;;;;;19.15;10.10;;;;;;;21.47;68.66;100725.59;126596;1093;22848;-75
2021/08/14 07:00:05;;;;;;;22.50;9.53;;;;;;;21.52;68.54;100715.41;126603;1093;25983;-76
2021/08/14 07:02:37;;;;;;;23.37;9.80;;;;;;;21.57;68.98;100718.17;126641;1093;26353;-77
2021/08/14 07:05:09;;;;;;;20.48;10.70;;;;;;;21.63;68.86;100724.52;126564;1092;26086;-80
2021/08/14 07:07:41;;;;;;;18.95;9.55;;;;;;;21.68;68.52;100722.88;126542;1093;22760;-77
2021/08/14 07:10:15;;;;;;;21.58;10.20;;;;;;;21.74;68.65;100723.55;126540;1093;26235;-77
2021/08/14 07:12:49;;;;;;;22.38;10.78;;;;;;;21.82;68.68;100718.77;126674;1093;23717;-77
2021/08/14 07:15:21;;;;;;;25.45;10.48;;;;;;;21.87;68.33;100726.40;126669;1093;22849;-77
2021/08/14 07:17:59;;;;;;;19.90;10.15;;;;;;;21.95;67.98;100721.62;126818;1093;22812;-78
2021/08/14 07:20:30;;;;;;;20.83;10.13;;;;;;;22.03;67.69;100718.88;126867;1093;22850;-78
2021/08/14 07:23:02;;;;;;;20.68;9.70;;;;;;;22.10;67.00;100721.80;127047;1093;22921;-78
2021/08/14 07:25:33;;;;;;;21.20;9.90;;;;;;;22.09;66.88;100728.05;127092;1092;22934;-78
2021/08/14 07:28:04;;;;;;;21.00;9.10;;;;;;;22.13;67.48;100725.64;126747;1093;23315;-78
2021/08/14 07:30:36;;;;;;;20.25;8.60;;;;;;;22.19;66.56;100732.75;126632;1093;22762;-78
2021/08/14 07:33:07;;;;;;;18.45;8.55;;;;;;;22.26;66.59;100734.91;126570;1092;22815;-78
2021/08/14 07:35:40;;;;;;;18.18;8.70;;;;;;;22.33;66.59;100742.02;126619;1093;22787;-77
2021/08/14 07:38:11;;;;;;;18.35;8.43;;;;;;;22.40;66.02;100744.20;126637;1093;22770;-78
2021/08/14 07:40:42;;;;;;;21.60;9.10;;;;;;;22.46;66.13;100744.84;126596;1093;22764;-79
2021/08/14 07:43:14;;;;;;;22.50;10.68;;;;;;;22.53;66.37;100744.19;126586;1093;24187;-78
2021/08/14 07:45:45;;;;;;;19.25;9.03;;;;;;;22.58;66.01;100737.63;126567;1093;22800;-78
2021/08/14 07:48:17;;;;;;;22.15;9.95;;;;;;;22.62;65.59;100748.66;126584;1093;22790;-77
2021/08/14 07:50:48;;;;;;;17.43;8.23;;;;;;;22.66;65.80;100737.73;126538;1093;22830;-77
2021/08/14 07:53:20;;;;;;;24.08;8.45;;;;;;;22.72;65.86;100741.95;126981;1092;22791;-78
2021/08/14 07:55:51;;;;;;;18.50;8.20;;;;;;;22.82;65.62;100750.81;127009;1093;22797;-78
2021/08/14 07:58:23;;;;;;;14.83;7.30;;;;;;;22.87;65.45;100749.91;126814;1092;22868;-82
2021/08/14 08:00:55;;;;;;;19.03;7.95;;;;;;;22.96;65.21;100741.67;127362;1092;22835;-78
2021/08/14 08:03:26;;;;;;;16.53;7.43;;;;;;;23.06;65.05;100748.41;126961;1093;22819;-79
2021/08/14 08:05:57;;;;;;;16.73;7.28;;;;;;;23.12;64.42;100742.58;126903;1092;22845;-78
2021/08/14 08:08:28;;;;;;;16.33;7.83;;;;;;;23.16;64.54;100746.61;126991;1092;27229;-79
2021/08/14 08:11:00;;;;;;;15.28;6.80;;;;;;;23.21;64.60;100744.95;126868;1092;22743;-78
2021/08/14 08:13:31;;;;;;;15.20;6.55;;;;;;;23.25;64.12;100748.99;127023;1093;24225;-81
2021/08/14 08:16:02;;;;;;;15.33;6.28;;;;;;;23.31;62.84;100743.14;126966;1092;22924;-80
2021/08/14 08:18:34;;;;;;;13.45;6.20;;;;;;;23.39;63.37;100751.78;126836;1093;22916;-80
2021/08/14 08:21:05;;;;;;;15.33;6.73;;;;;;;23.46;63.13;100742.55;127375;1092;24217;-80
2021/08/14 08:23:38;;;;;;;16.58;6.08;;;;;;;23.52;61.81;100741.08;127377;1093;23170;-81
2021/08/14 08:26:09;;;;;;;12.23;5.78;;;;;;;23.53;61.60;100745.44;127249;1093;22791;-80
2021/08/14 08:28:40;;;;;;;14.78;6.75;;;;;;;23.50;61.39;100748.66;127265;1093;22925;-81
2021/08/14 08:31:12;;;;;;;13.98;6.13;;;;;;;23.50;61.35;100740.11;127333;1092;22763;-80
2021/08/14 08:33:43;;;;;;;17.23;6.48;;;;;;;23.56;61.67;100740.72;127126;1093;22908;-81
2021/08/14 08:36:14;;;;;;;14.25;5.98;;;;;;;23.64;60.78;100742.31;127227;1092;22808;-80
2021/08/14 08:38:46;;;;;;;16.48;6.38;;;;;;;23.63;61.15;100743.63;127266;1092;25408;-80
2021/08/14 08:41:19;;;;;;;13.73;5.63;;;;;;;23.68;61.09;100748.42;127174;1092;24492;-80
2021/08/14 08:43:50;;;;;;;19.08;6.40;;;;;;;23.74;60.86;100745.41;127255;1093;22853;-79
2021/08/14 08:46:23;;;;;;;14.30;5.33;;;;;;;23.80;60.82;100740.33;126724;1091;22927;-80
2021/08/14 08:48:54;;;;;;;13.30;5.87;;;;;;;23.87;60.75;100739.63;127626;1093;22776;-79
2021/08/14 08:51:32;;;;;;;12.50;4.53;;;;;;;23.89;59.29;100742.67;127586;1093;22793;-79
2021/08/14 08:54:05;;;;;;;11.70;4.77;;;;;;;23.93;59.21;100737.38;127541;1093;22834;-78
2021/08/14 08:56:37;;;;;;;15.08;5.40;;;;;;;23.95;58.29;100737.58;126869;1093;22882;-78
2021/08/14 08:59:11;;;;;;;15.65;4.58;;;;;;;23.95;58.64;100734.73;127484;1092;23517;-79
2021/08/14 09:01:45;;;;;;;12.35;4.40;;;;;;;23.91;58.16;100740.03;127462;1093;22895;-79
2021/08/14 09:04:31;;;;;;;11.68;3.85;;;;;;;23.90;57.69;100747.04;127416;1093;22812;-80
2021/08/14 09:07:06;;;;;;;14.20;4.53;;;;;;;23.91;57.56;100746.50;127495;1093;22843;-80
2021/08/14 09:09:37;;;;;;;13.25;4.30;;;;;;;23.92;57.37;100744.39;127254;1093;22802;-79
2021/08/14 09:12:29;;;;;;;9.75;4.18;;;;;;;23.93;57.68;100738.15;127303;1093;22868;-79
2021/08/14 09:15:04;;;;;;;10.25;3.93;;;;;;;24.04;57.68;100743.55;127185;1092;22873;-80
2021/08/14 09:17:36;;;;;;;11.60;4.10;;;;;;;24.18;57.58;100741.36;127265;1093;22738;-80
2021/08/14 09:20:14;;;;;;;10.85;4.05;;;;;;;24.24;57.02;100744.81;127271;1093;26466;-80
2021/08/14 09:23:02;;;;;;;13.93;4.07;;;;;;;24.25;57.21;100734.92;126765;1092;22767;-80
2021/08/14 09:25:42;;;;;;;10.38;3.40;;;;;;;24.35;57.04;100738.02;126743;1092;22765;-80
2021/08/14 09:28:16;;;;;;;11.88;3.35;;;;;;;24.42;57.03;100731.57;126960;1092;22827;-79
2021/08/14 09:30:57;;;;;;;10.60;4.18;;;;;;;24.47;54.84;100742.84;126862;1092;22775;-80
2021/08/14 09:33:34;;;;;;;11.10;3.23;;;;;;;24.47;55.90;100730.66;127187;1093;23189;-80
2021/08/14 09:36:07;;;;;;;10.43;3.85;;;;;;;24.52;56.50;100721.17;127356;1093;22912;-79
2021/08/14 09:38:46;;;;;;;14.73;3.85;;;;;;;24.60;56.23;100724.81;127979;1093;22793;-78
2021/08/14 09:41:21;;;;;;;12.15;3.53;;;;;;;24.65;56.18;100724.63;127790;1092;22797;-80
2021/08/14 09:43:56;;;;;;;14.75;4.30;;;;;;;24.74;55.73;100717.64;127539;1093;22756;-80
2021/08/14 09:46:43;;;;;;;12.35;3.93;;;;;;;24.79;55.62;100720.31;127197;1093;23267;-81
2021/08/14 09:49:14;;;;;;;10.15;3.95;;;;;;;24.88;55.59;100713.30;126798;1093;22771;-78
2021/08/14 09:51:45;;;;;;;12.08;3.80;;;;;;;24.94;55.29;100711.02;126784;1092;24158;-80
2021/08/14 09:54:17;;;;;;;8.85;3.68;;;;;;;25.01;54.70;100718.08;127712;1093;22781;-82
2021/08/14 09:56:48;;;;;;;9.53;3.08;;;;;;;25.08;55.14;100714.48;127914;1092;36652;-81
2021/08/14 09:59:21;;;;;;;10.83;3.80;;;;;;;25.13;54.70;100714.30;127703;1093;26330;-80
2021/08/14 10:01:53;;;;;;;9.23;3.58;;;;;;;25.21;54.71;100715.06;127718;1093;22854;-80
2021/08/14 10:04:24;;;;;;;9.93;3.33;;;;;;;25.26;53.00;100719.07;127714;1092;24027;-80
2021/08/14 10:06:56;;;;;;;8.93;3.68;;;;;;;25.27;53.58;100717.72;127516;1091;23382;-80
2021/08/14 10:09:27;;;;;;;12.00;3.53;;;;;;;25.27;53.79;100712.77;126963;1093;27476;-80
2021/08/14 10:11:58;;;;;;;14.35;3.85;;;;;;;25.28;53.83;100713.55;127282;1093;22915;-80
2021/08/14 10:14:30;;;;;;;11.95;3.88;;;;;;;25.31;53.89;100716.02;127189;1093;22820;-80
2021/08/14 10:17:01;;;;;;;11.90;3.50;;;;;;;25.33;53.93;100718.29;127456;1092;22856;-80
2021/08/14 10:19:33;;;;;;;11.20;4.05;;;;;;;25.36;53.44;100723.65;126858;1093;27141;-80
2021/08/14 10:22:06;;;;;;;10.73;3.95;;;;;;;25.33;53.60;100715.44;126909;1093;25046;-81
2021/08/14 10:24:41;;;;;;;9.78;3.30;;;;;;;25.35;53.73;100710.67;127392;1093;22781;-81
2021/08/14 10:27:15;;;;;;;12.95;3.88;;;;;;;25.40;53.82;100712.59;127445;1093;22818;-81
2021/08/14 10:29:48;;;;;;;11.03;3.65;;;;;;;25.46;53.67;100712.42;127610;1093;22854;-81
2021/08/14 10:32:48;;;;;;;10.25;4.43;;;;;;;25.48;53.62;100706.89;127702;1093;28778;-81
2021/08/14 10:35:39;;;;;;;10.20;4.33;;;;;;;25.51;53.74;100709.36;127299;1093;22834;-81
2021/08/14 10:38:39;;;;;;;11.73;4.23;;;;;;;25.55;53.72;100706.14;127201;1095;23983;-80
2021/08/14 10:41:11;;;;;;;16.65;4.95;;;;;;;25.58;53.80;100713.55;127366;1096;22952;-80
2021/08/14 10:44:03;;;;;;;11.33;3.85;;;;;;;25.60;53.08;100711.66;127250;1093;22798;-80
2021/08/14 10:46:44;;;;;;;14.70;4.33;;;;;;;25.50;53.09;100699.27;127440;1096;22960;-80
2021/08/14 10:49:21;;;;;;;13.25;5.35;;;;;;;25.46;53.16;100716.05;127688;1093;22767;-81
2021/08/14 10:52:18;;;;;;;15.75;5.30;;;;;;;25.49;54.00;100706.31;126941;1096;26515;-80
2021/08/14 10:55:14;;;;;;;14.55;5.35;;;;;;;25.56;53.97;100699.84;127287;1094;25416;-79
2021/08/14 10:57:48;;;;;;;12.48;4.68;;;;;;;25.60;53.60;100693.73;127266;1096;23548;-79
2021/08/14 11:00:29;;;;;;;12.23;4.70;;;;;;;25.63;53.80;100689.73;126490;1094;22921;-78
2021/08/14 11:03:19;;;;;;;17.65;5.78;;;;;;;25.68;54.23;100691.62;126736;1096;22797;-80
2021/08/14 11:05:51;;;;;;;17.30;6.05;;;;;;;25.72;53.69;100691.98;126685;1096;25883;-79
2021/08/14 11:08:31;;;;;;;12.53;4.68;;;;;;;25.70;53.90;100688.20;126581;1092;24588;-79
2021/08/14 11:11:01;;;;;;;;;;;;;;;25.73;53.10;100690.67;126760;1095;25980;-78
2021/08/14 11:14:08;;;;;;;13.85;5.08;;;;;;;25.74;53.91;100688.58;126789;1093;22022;-80
2021/08/14 11:17:00;;;;;;;12.00;5.33;;;;;;;25.81;53.75;100682.83;127017;1093;24471;-79
2021/08/14 11:19:57;;;;;;;13.88;6.05;;;;;;;25.83;53.87;100668.72;127042;1093;22790;-80
2021/08/14 11:22:33;;;;;;;13.03;5.68;;;;;;;25.87;54.09;100680.52;127367;1093;22794;-79
2021/08/14 11:25:21;;;;;;;16.13;5.38;;;;;;;25.87;53.86;100671.17;127615;1093;22858;-80
2021/08/14 11:28:03;;;;;;;15.68;6.28;;;;;;;25.90;53.61;100673.66;127742;1092;22794;-80
2021/08/14 11:30:38;;;;;;;13.13;6.58;;;;;;;25.89;53.69;100663.55;127711;1092;22822;-80
2021/08/14 11:33:12;;;;;;;14.83;6.05;;;;;;;25.90;53.93;100667.95;127694;1093;22765;-80
2021/08/14 11:35:44;;;;;;;14.70;6.40;;;;;;;25.93;53.82;100661.05;127710;1093;22768;-79